Strona główna
METAR-TAF:

METAR-TAF

Lotnisko :

Port lotniczy Londyn-Heathrow

Londyn-Heathrow, Anglia

Szerokość geograficzna: 51-29N, Długość geograficzna: 000-27W, wysokość: 24 m

Aktualna obserwacja pogody

Raport powstał 35 minut temu, godzina 11:50 UTC
Wiatr 8 kt od północny wschód, zmienny między północno-północny wschód i wschód
Temperatura 30°C
Wilgotność 43%
Ciśnienie 1020 hPa
Widzialność 10 km lub więcej

METAR: EGLL 081150Z AUTO 05008KT 020V100 9999 NCD 30/16 Q1020 NOSIG

czas: 13:25 (12:25 UTC)

Prognoza

Raport powstał 1 godzina i 30 minut temu, godzina 10:55 UTC
Prognoza ważna od 08 godzina 12 UTC do 09 godzina 18 UTC
Wiatr 8 kt od północny wschód
Widzialność 10 km lub więcej
Brak chmur poniżej 1500 m i brak chmur cumulonimbus
Prawdopodobieństwo 30% :
Przejściowo
od 09 godzina 02 UTC do 09 godzina 09 UTC
Przerywane chmury na wysokości 800 ft

TAF: EGLL 081055Z 0812/0918 04008KT CAVOK PROB30 TEMPO 0902/0909 BKN008

Obserwacja i prognoza pogody dla ponad 4000 lotnisk (raport METAR i TAF).

Dostępne stacje oznaczono żółtymi i czerwonymi punktami na mapie.

Najedź kursorem aby zobaczyć nazwę stacji.

Kliknij aby zobaczyć obserwacje i prognozy pogody.

Aby zmienić mapę: kliknij na zielony przycisk z czarnym krzyżykiem, aby powiększyć; na zielony przycisk z myślnikiem, aby pomniejszyć; na zielone strzałki, aby przejść do map sąsiednich.


METAR-TAF: